Terminal Aerodrome Forecast
Issued by NWS

Home | Current Version | Previous Version | Text Only | Print | Product List | Glossary On
Versions: 1 2 3 4 5 6 7 8 9 10 11 12
000
FTUS44 KEPZ 202333
TAFTCS
TAF
KTCS 202333Z 2100/2124 21014G22KT P6SM SKC
     FM210600 24010KT P6SM SKC
     FM211800 28013G23KT P6SM SCT250=

USA.gov is the U.S. government's official web portal to all federal, state and local government web resources and services.